createdAt,value
2017-08-14T00:00:37.676Z,96.30
2017-08-14T00:03:05.344Z,96.40
2017-08-14T00:05:32.971Z,96.40
2017-08-14T00:08:00.617Z,95.90
2017-08-14T00:10:28.280Z,96.10
2017-08-14T00:12:55.903Z,97.00
2017-08-14T00:15:23.559Z,96.30
2017-08-14T00:17:51.183Z,96.10
2017-08-14T00:20:18.816Z,96.40
2017-08-14T00:22:46.528Z,96.60
2017-08-14T00:25:14.155Z,96.70
2017-08-14T00:27:41.821Z,96.10
2017-08-14T00:30:09.457Z,96.30
2017-08-14T00:32:37.079Z,96.40
2017-08-14T00:35:04.739Z,95.90
2017-08-14T00:37:32.363Z,95.40
2017-08-14T00:40:00.029Z,94.50
2017-08-14T00:42:27.671Z,95.10
2017-08-14T00:44:55.305Z,95.40
2017-08-14T00:47:22.977Z,95.60
2017-08-14T00:49:50.633Z,95.40
2017-08-14T00:52:18.294Z,95.50
2017-08-14T00:54:46.687Z,95.40
2017-08-14T00:57:14.323Z,95.40
2017-08-14T00:59:41.984Z,95.80
2017-08-14T01:02:09.614Z,95.70
2017-08-14T01:04:37.312Z,96.00
2017-08-14T01:07:04.940Z,96.10
2017-08-14T01:09:32.587Z,95.10
2017-08-14T01:12:00.248Z,95.30
2017-08-14T01:14:27.884Z,96.40
2017-08-14T01:16:55.548Z,95.80
2017-08-14T01:19:23.199Z,96.60
2017-08-14T01:21:50.865Z,95.90
2017-08-14T01:24:19.304Z,94.90
2017-08-14T01:26:46.927Z,94.20
2017-08-14T01:29:14.593Z,94.90
2017-08-14T01:31:42.269Z,95.90
2017-08-14T01:34:09.912Z,95.60
2017-08-14T01:36:37.576Z,95.90
2017-08-14T01:39:05.975Z,94.60
2017-08-14T01:41:33.635Z,94.50
2017-08-14T01:44:01.271Z,94.90
2017-08-14T01:46:28.922Z,94.70
2017-08-14T01:48:56.607Z,94.40
2017-08-14T01:51:24.255Z,94.40
2017-08-14T01:53:51.917Z,94.30
2017-08-14T01:56:20.305Z,95.30
2017-08-14T01:58:47.943Z,95.30
2017-08-14T02:01:18.680Z,95.50
2017-08-14T02:03:46.331Z,95.30
2017-08-14T02:06:13.996Z,95.50
2017-08-14T02:08:41.641Z,95.00
2017-08-14T02:11:09.297Z,95.80
2017-08-14T02:13:36.951Z,95.30
2017-08-14T02:16:04.621Z,95.40
2017-08-14T02:18:33.047Z,95.50
2017-08-14T02:21:00.673Z,94.70
2017-08-14T02:23:28.304Z,94.20
2017-08-14T02:25:56.024Z,94.50
2017-08-14T02:28:23.649Z,95.30
2017-08-14T02:30:51.318Z,95.20
2017-08-14T02:33:19.070Z,95.10
2017-08-14T02:35:46.711Z,94.90
2017-08-14T02:38:14.381Z,94.60
2017-08-14T02:40:42.786Z,95.70
2017-08-14T02:43:10.449Z,95.60
2017-08-14T02:45:38.079Z,96.20
2017-08-14T02:48:05.703Z,95.70
2017-08-14T02:50:33.412Z,95.10
2017-08-14T02:53:01.058Z,95.20
2017-08-14T02:55:29.500Z,94.90
2017-08-14T02:57:57.166Z,94.50
2017-08-14T03:00:24.792Z,95.00
2017-08-14T03:02:52.477Z,94.60
2017-08-14T03:05:20.868Z,95.70
2017-08-14T03:07:48.523Z,95.60
2017-08-14T03:10:16.144Z,96.20
2017-08-14T03:12:43.784Z,96.30
2017-08-14T03:15:12.231Z,95.40
2017-08-14T03:17:39.868Z,95.30
2017-08-14T03:20:07.528Z,95.40
2017-08-14T03:22:35.167Z,95.70
2017-08-14T03:25:02.795Z,96.00
2017-08-14T03:27:30.451Z,97.20
2017-08-14T03:29:58.074Z,96.80
2017-08-14T03:32:25.738Z,97.80
2017-08-14T03:34:53.374Z,97.70
2017-08-14T03:37:21.017Z,98.30
2017-08-14T03:39:48.672Z,98.50
2017-08-14T03:42:16.300Z,99.50
2017-08-14T03:44:43.967Z,99.90
2017-08-14T03:47:11.892Z,99.90
2017-08-14T03:49:39.523Z,99.90
2017-08-14T03:52:07.224Z,99.90
2017-08-14T03:54:34.865Z,99.90
2017-08-14T03:57:02.544Z,99.90
2017-08-14T03:59:30.943Z,99.30
2017-08-14T04:01:58.577Z,99.30
2017-08-14T04:04:26.249Z,98.60
2017-08-14T04:06:53.879Z,98.20
2017-08-14T04:09:21.561Z,98.00
2017-08-14T04:11:49.191Z,97.40
2017-08-14T04:14:16.820Z,97.20
2017-08-14T04:16:44.482Z,97.10
2017-08-14T04:19:12.117Z,97.30
2017-08-14T04:21:39.805Z,96.60
2017-08-14T04:24:07.440Z,97.20
2017-08-14T04:26:35.081Z,97.30
2017-08-14T04:29:02.759Z,96.90
2017-08-14T04:31:30.397Z,96.30
2017-08-14T04:33:58.082Z,96.80
2017-08-14T04:36:25.744Z,98.00
2017-08-14T04:38:53.362Z,99.20
2017-08-14T04:41:21.820Z,99.90
2017-08-14T04:43:50.241Z,99.60
2017-08-14T04:46:17.956Z,99.60
2017-08-14T04:48:45.589Z,98.80
2017-08-14T04:51:13.995Z,99.90
2017-08-14T04:53:41.671Z,99.90
2017-08-14T04:56:09.363Z,99.90
2017-08-14T04:58:37.090Z,99.90
2017-08-14T05:01:05.488Z,99.90
2017-08-14T05:03:33.121Z,99.90
2017-08-14T05:06:00.795Z,99.90
2017-08-14T05:08:28.440Z,99.90
2017-08-14T05:10:56.105Z,99.90
2017-08-14T05:13:23.738Z,99.90
2017-08-14T05:15:51.360Z,99.90
2017-08-14T05:18:20.046Z,99.70
2017-08-14T05:20:47.694Z,98.30
2017-08-14T05:23:15.360Z,96.80
2017-08-14T05:25:43.037Z,96.80
2017-08-14T05:28:10.671Z,96.00
2017-08-14T05:30:38.362Z,93.70
2017-08-14T05:33:05.990Z,93.10
2017-08-14T05:35:34.428Z,91.50
2017-08-14T05:38:02.055Z,91.50
2017-08-14T05:40:29.706Z,90.70
2017-08-14T05:42:57.382Z,91.10
2017-08-14T05:45:25.009Z,91.00
2017-08-14T05:47:52.665Z,87.30
2017-08-14T05:50:20.302Z,89.10
2017-08-14T05:52:47.932Z,85.20
2017-08-14T05:55:15.596Z,85.90
2017-08-14T05:57:43.243Z,87.20
2017-08-14T06:00:10.909Z,89.80
2017-08-14T06:02:38.548Z,90.80
2017-08-14T06:05:06.203Z,86.40
2017-08-14T06:07:33.860Z,83.60
2017-08-14T06:10:02.273Z,82.60
2017-08-14T06:12:29.954Z,82.60
2017-08-14T06:14:57.587Z,83.10
2017-08-14T06:17:25.225Z,82.90
2017-08-14T06:19:52.883Z,81.60
2017-08-14T06:22:20.520Z,81.70
2017-08-14T06:24:48.190Z,81.50
2017-08-14T06:27:15.825Z,78.70
2017-08-14T06:29:43.499Z,80.50
2017-08-14T06:32:11.145Z,80.40
2017-08-14T06:34:38.751Z,78.00
2017-08-14T06:37:06.402Z,70.80
2017-08-14T06:39:34.026Z,69.60
2017-08-14T06:42:01.645Z,71.20
2017-08-14T06:44:29.292Z,68.00
2017-08-14T06:46:56.922Z,67.70
2017-08-14T06:49:24.566Z,60.30
2017-08-14T06:51:52.176Z,56.50
2017-08-14T06:54:19.807Z,53.20
2017-08-14T06:56:48.218Z,41.20
2017-08-14T06:59:15.829Z,41.20
2017-08-14T07:01:43.456Z,38.50
2017-08-14T07:04:11.828Z,35.20
2017-08-14T07:06:39.468Z,35.10
2017-08-14T07:09:07.885Z,30.80
2017-08-14T07:11:35.483Z,30.70
2017-08-14T07:14:03.123Z,29.70
2017-08-14T07:16:31.504Z,29.20
2017-08-14T07:18:59.131Z,29.30
2017-08-14T07:21:26.778Z,29.70
2017-08-14T07:23:55.150Z,29.10
2017-08-14T07:26:22.815Z,29.10
2017-08-14T07:28:50.431Z,29.80
2017-08-14T07:31:18.807Z,24.00
2017-08-14T07:33:46.441Z,23.90
2017-08-14T07:36:14.831Z,23.50
2017-08-14T07:38:42.464Z,22.90
2017-08-14T07:41:10.081Z,21.50
2017-08-14T07:43:37.689Z,23.20
2017-08-14T07:46:05.323Z,24.00
2017-08-14T07:48:32.937Z,23.90
2017-08-14T07:51:01.343Z,25.20
2017-08-14T07:53:29.003Z,25.10
2017-08-14T07:55:57.413Z,22.90
2017-08-14T07:58:25.053Z,22.50
2017-08-14T08:00:53.423Z,23.10
2017-08-14T08:03:21.834Z,21.30
2017-08-14T08:05:49.461Z,20.80
2017-08-14T08:08:17.064Z,19.60
2017-08-14T08:10:44.718Z,19.50
2017-08-14T08:13:13.477Z,19.30
2017-08-14T08:15:41.911Z,19.00
2017-08-14T08:18:09.547Z,19.10
2017-08-14T08:20:37.174Z,19.00
2017-08-14T08:23:04.815Z,17.70
2017-08-14T08:25:32.412Z,16.70
2017-08-14T08:28:00.053Z,17.70
2017-08-14T08:30:27.656Z,18.20
2017-08-14T08:32:55.275Z,18.50
2017-08-14T08:35:23.681Z,17.40
2017-08-14T08:37:51.307Z,17.80
2017-08-14T08:40:18.970Z,19.00
2017-08-14T08:42:46.585Z,19.40
2017-08-14T08:45:14.961Z,17.20
2017-08-14T08:47:42.652Z,17.20
2017-08-14T08:50:10.261Z,17.60
2017-08-14T08:52:37.896Z,17.60
2017-08-14T08:55:05.581Z,16.90
2017-08-14T08:57:33.200Z,15.80
2017-08-14T09:00:00.836Z,16.50
2017-08-14T09:02:28.453Z,14.50
2017-08-14T09:04:56.099Z,15.20
2017-08-14T09:07:23.720Z,13.70
2017-08-14T09:09:51.317Z,14.50
2017-08-14T09:12:19.711Z,13.00
2017-08-14T09:14:47.307Z,13.00
2017-08-14T09:17:14.953Z,14.40
2017-08-14T09:19:42.586Z,14.90
2017-08-14T09:22:10.187Z,16.20
2017-08-14T09:24:37.823Z,16.10
2017-08-14T09:27:05.429Z,16.60
2017-08-14T09:29:33.056Z,15.60
2017-08-14T09:32:00.657Z,13.50
2017-08-14T09:34:28.273Z,14.50
2017-08-14T09:36:56.009Z,14.00
2017-08-14T09:39:25.262Z,12.80
2017-08-14T09:41:52.897Z,14.60
2017-08-14T09:44:20.608Z,14.60
2017-08-14T09:46:48.993Z,16.90
2017-08-14T09:49:16.653Z,16.70
2017-08-14T09:51:44.246Z,17.00
2017-08-14T09:54:11.895Z,17.90
2017-08-14T09:56:39.516Z,19.00
2017-08-14T09:59:07.120Z,19.60
2017-08-14T10:01:35.515Z,19.60
2017-08-14T10:04:04.137Z,19.50
2017-08-14T10:06:32.550Z,19.60
2017-08-14T10:09:00.157Z,19.70
2017-08-14T10:11:27.886Z,21.00
2017-08-14T10:13:55.534Z,22.70
2017-08-14T10:16:23.151Z,21.90
2017-08-14T10:18:50.783Z,23.80
2017-08-14T10:21:18.392Z,16.30
2017-08-14T10:23:46.771Z,14.80
2017-08-14T10:26:14.424Z,14.80
2017-08-14T10:28:42.041Z,15.10
2017-08-14T10:31:10.442Z,15.10
2017-08-14T10:33:38.046Z,14.80
2017-08-14T10:36:06.422Z,16.20
2017-08-14T10:38:34.076Z,16.20
2017-08-14T10:41:01.693Z,17.30
2017-08-14T10:43:29.353Z,18.90
2017-08-14T10:45:57.719Z,19.10
2017-08-14T10:48:25.334Z,19.10
2017-08-14T10:50:52.993Z,21.30
2017-08-14T10:53:20.607Z,19.90
2017-08-14T10:55:48.243Z,19.60
2017-08-14T10:58:15.863Z,20.20
2017-08-14T11:00:44.235Z,19.60
2017-08-14T11:03:11.881Z,19.60
2017-08-14T11:05:39.504Z,21.70
2017-08-14T11:08:07.917Z,21.00
2017-08-14T11:10:35.526Z,20.90
2017-08-14T11:13:03.125Z,20.90
2017-08-14T11:15:30.755Z,21.40
2017-08-14T11:17:58.368Z,22.50
2017-08-14T11:20:26.773Z,21.50
2017-08-14T11:22:54.387Z,21.50
2017-08-14T11:25:21.985Z,21.40
2017-08-14T11:27:49.634Z,21.40
2017-08-14T11:30:17.241Z,21.30
2017-08-14T11:32:44.881Z,22.10
2017-08-14T11:35:12.537Z,23.10
2017-08-14T11:37:40.136Z,23.20
2017-08-14T11:40:08.537Z,20.60
2017-08-14T11:42:36.145Z,20.50
2017-08-14T11:45:04.544Z,19.90
2017-08-14T11:47:32.228Z,19.80
2017-08-14T11:49:59.869Z,19.50
2017-08-14T11:52:27.512Z,20.90
2017-08-14T11:54:55.127Z,20.90
2017-08-14T11:57:22.764Z,20.40
2017-08-14T11:59:50.387Z,21.50
2017-08-14T12:02:18.763Z,20.10
2017-08-14T12:04:46.421Z,19.70
2017-08-14T12:07:14.029Z,19.70
2017-08-14T12:09:41.682Z,19.70
2017-08-14T12:12:09.304Z,18.40
2017-08-14T12:14:36.908Z,19.30
2017-08-14T12:17:04.552Z,20.00
2017-08-14T12:19:32.182Z,21.00
2017-08-14T12:22:00.592Z,19.10
2017-08-14T12:24:28.212Z,18.90
2017-08-14T12:26:55.810Z,18.60
2017-08-14T12:29:23.449Z,18.70
2017-08-14T12:31:51.044Z,19.10
2017-08-14T12:34:18.678Z,19.00
2017-08-14T12:36:47.063Z,19.70
2017-08-14T12:39:14.673Z,19.60
2017-08-14T12:41:42.322Z,18.60
2017-08-14T12:44:09.945Z,19.20
2017-08-14T12:46:37.595Z,19.50
2017-08-14T12:49:05.229Z,19.70
2017-08-14T12:51:32.835Z,18.80
2017-08-14T12:54:00.485Z,19.60
2017-08-14T12:56:28.173Z,19.30
2017-08-14T12:58:55.816Z,19.10
2017-08-14T13:01:23.420Z,19.50
2017-08-14T13:03:51.040Z,18.30
2017-08-14T13:06:19.480Z,18.10
2017-08-14T13:08:47.197Z,18.10
2017-08-14T13:11:15.768Z,17.10
2017-08-14T13:13:43.402Z,16.90
2017-08-14T13:16:11.015Z,16.30
2017-08-14T13:18:39.423Z,17.90
2017-08-14T13:21:07.035Z,17.80
2017-08-14T13:23:35.528Z,16.40
2017-08-14T13:26:03.127Z,16.30
2017-08-14T13:28:30.737Z,16.60
2017-08-14T13:30:58.389Z,14.90
2017-08-14T13:33:25.987Z,15.20
2017-08-14T13:35:54.413Z,15.60
2017-08-14T13:38:22.024Z,15.60
2017-08-14T13:40:49.655Z,15.20
2017-08-14T13:43:17.297Z,15.80
2017-08-14T13:45:44.904Z,14.30
2017-08-14T13:48:12.531Z,15.00
2017-08-14T13:50:40.124Z,15.20
2017-08-14T13:53:08.503Z,14.40
2017-08-14T13:55:36.139Z,14.30
2017-08-14T13:58:04.501Z,13.90
2017-08-14T14:00:32.145Z,13.80
2017-08-14T14:03:00.533Z,14.80
2017-08-14T14:05:28.129Z,14.80
2017-08-14T14:07:55.775Z,12.40
2017-08-14T14:10:23.388Z,12.00
2017-08-14T14:12:51.024Z,14.70
2017-08-14T14:15:18.621Z,13.40
2017-08-14T14:17:46.991Z,15.70
2017-08-14T14:20:15.403Z,14.70
2017-08-14T14:22:43.040Z,14.70
2017-08-14T14:25:10.686Z,15.20
2017-08-14T14:27:38.299Z,16.80
2017-08-14T14:30:06.659Z,14.00
2017-08-14T14:32:35.073Z,14.20
2017-08-14T14:35:02.691Z,14.00
2017-08-14T14:37:30.349Z,14.70
2017-08-14T14:39:57.953Z,15.30
2017-08-14T14:42:25.558Z,15.70
2017-08-14T14:44:53.183Z,18.50
2017-08-14T14:47:20.792Z,16.50
2017-08-14T14:49:49.208Z,16.30
2017-08-14T14:52:16.835Z,16.30
2017-08-14T14:54:44.432Z,15.90
2017-08-14T14:57:12.588Z,16.50
2017-08-14T14:59:40.201Z,15.80
2017-08-14T15:02:07.844Z,17.10
2017-08-14T15:04:35.457Z,16.80
2017-08-14T15:07:03.835Z,16.70
2017-08-14T15:09:31.482Z,16.60
2017-08-14T15:11:59.086Z,16.30
2017-08-14T15:14:26.738Z,16.30
2017-08-14T15:16:54.350Z,15.60
2017-08-14T15:19:21.972Z,15.80
2017-08-14T15:21:49.612Z,15.50
2017-08-14T15:24:17.229Z,15.70
2017-08-14T15:26:44.872Z,16.00
2017-08-14T15:29:12.467Z,16.40
2017-08-14T15:31:40.078Z,16.00
2017-08-14T15:34:08.484Z,15.40
2017-08-14T15:36:36.098Z,15.80
2017-08-14T15:39:03.750Z,16.60
2017-08-14T15:41:31.376Z,18.30
2017-08-14T15:43:59.761Z,17.80
2017-08-14T15:46:27.404Z,17.80
2017-08-14T15:48:55.028Z,17.40
2017-08-14T15:51:22.664Z,17.00
2017-08-14T15:53:50.272Z,17.70
2017-08-14T15:56:17.875Z,16.60
2017-08-14T15:58:45.519Z,18.00
2017-08-14T16:01:13.902Z,18.30
2017-08-14T16:03:41.553Z,18.20
2017-08-14T16:06:09.183Z,18.70
2017-08-14T16:08:37.556Z,18.80
2017-08-14T16:11:05.187Z,18.80
2017-08-14T16:13:33.620Z,18.10
2017-08-14T16:16:01.254Z,18.00
2017-08-14T16:18:28.920Z,18.60
2017-08-14T16:20:56.530Z,19.20
2017-08-14T16:23:24.184Z,18.80
2017-08-14T16:25:51.796Z,18.40
2017-08-14T16:28:19.460Z,18.50
2017-08-14T16:30:47.106Z,19.00
2017-08-14T16:33:14.720Z,18.00
2017-08-14T16:35:43.129Z,19.10
2017-08-14T16:38:10.755Z,18.60
2017-08-14T16:40:38.382Z,18.60
2017-08-14T16:43:06.790Z,18.60
2017-08-14T16:45:34.391Z,18.50
2017-08-14T16:48:01.987Z,19.20
2017-08-14T16:50:29.635Z,19.20
2017-08-14T16:52:57.231Z,19.90
2017-08-14T16:55:25.604Z,19.80
2017-08-14T16:57:53.235Z,19.80
2017-08-14T17:00:20.840Z,19.90
2017-08-14T17:02:48.440Z,20.00
2017-08-14T17:05:16.551Z,19.80
2017-08-14T17:07:44.176Z,20.10
2017-08-14T17:10:11.804Z,20.20
2017-08-14T17:12:39.445Z,21.00
2017-08-14T17:15:07.045Z,21.00
2017-08-14T17:17:34.656Z,22.30
2017-08-14T17:20:02.306Z,22.10
2017-08-14T17:22:29.928Z,22.30
2017-08-14T17:24:57.550Z,23.10
2017-08-14T17:27:25.975Z,24.40
2017-08-14T17:29:53.614Z,23.70
2017-08-14T17:32:21.253Z,24.50
2017-08-14T17:34:48.913Z,24.80
2017-08-14T17:37:16.535Z,25.20
2017-08-14T17:39:44.173Z,25.80
2017-08-14T17:42:11.817Z,25.70
2017-08-14T17:44:39.427Z,25.60
2017-08-14T17:47:07.069Z,26.50
2017-08-14T17:49:34.798Z,27.10
2017-08-14T17:52:02.529Z,27.20
2017-08-14T17:54:30.182Z,31.00
2017-08-14T17:56:57.792Z,30.60
2017-08-14T17:59:25.442Z,29.90
2017-08-14T18:01:53.043Z,31.10
2017-08-14T18:04:20.668Z,30.20
2017-08-14T18:06:48.314Z,31.10
2017-08-14T18:09:15.922Z,31.30
2017-08-14T18:11:43.571Z,38.10
2017-08-14T18:14:11.190Z,37.00
2017-08-14T18:16:38.825Z,41.70
2017-08-14T18:19:06.544Z,44.00
2017-08-14T18:21:34.147Z,45.40
2017-08-14T18:24:02.573Z,45.20
2017-08-14T18:26:30.195Z,45.30
2017-08-14T18:28:57.803Z,46.90
2017-08-14T18:31:26.217Z,48.70
2017-08-14T18:33:53.824Z,48.70
2017-08-14T18:36:21.468Z,50.80
2017-08-14T18:38:49.078Z,53.20
2017-08-14T18:41:16.689Z,54.10
2017-08-14T18:43:44.337Z,47.90
2017-08-14T18:46:11.936Z,52.30
2017-08-14T18:48:39.582Z,54.80
2017-08-14T18:51:07.956Z,57.50
2017-08-14T18:53:36.332Z,57.70
2017-08-14T18:56:03.977Z,57.70
2017-08-14T18:58:31.597Z,58.00
2017-08-14T19:00:59.219Z,55.70
2017-08-14T19:03:26.841Z,54.00
2017-08-14T19:05:54.474Z,53.40
2017-08-14T19:08:24.126Z,52.40
2017-08-14T19:10:49.846Z,51.90
2017-08-14T19:13:17.514Z,53.00
2017-08-14T19:15:45.121Z,52.20
2017-08-14T19:18:12.718Z,53.60
2017-08-14T19:20:40.366Z,53.60
2017-08-14T19:23:07.971Z,53.30
2017-08-14T19:25:36.384Z,54.40
2017-08-14T19:28:04.000Z,54.30
2017-08-14T19:30:31.600Z,54.60
2017-08-14T19:32:59.243Z,55.60
2017-08-14T19:35:26.873Z,55.10
2017-08-14T19:37:54.525Z,55.50
2017-08-14T19:40:22.131Z,57.00
2017-08-14T19:42:49.818Z,55.60
2017-08-14T19:45:17.460Z,58.20
2017-08-14T19:47:45.081Z,59.50
2017-08-14T19:50:13.316Z,57.20
2017-08-14T19:52:40.934Z,59.20
2017-08-14T19:55:08.549Z,57.30
2017-08-14T19:57:36.196Z,59.90
2017-08-14T20:00:03.814Z,59.70
2017-08-14T20:02:31.455Z,59.10
2017-08-14T20:04:59.083Z,59.90
2017-08-14T20:07:27.473Z,59.50
2017-08-14T20:09:55.112Z,59.50
2017-08-14T20:12:22.733Z,61.70
2017-08-14T20:14:50.380Z,59.90
2017-08-14T20:17:18.004Z,62.90
2017-08-14T20:19:46.410Z,63.30
2017-08-14T20:22:14.056Z,63.10
2017-08-14T20:24:41.663Z,62.70
2017-08-14T20:27:10.104Z,62.10
2017-08-14T20:29:37.734Z,62.10
2017-08-14T20:32:05.335Z,62.10
2017-08-14T20:34:33.749Z,62.80
2017-08-14T20:37:01.349Z,62.80
2017-08-14T20:39:29.031Z,63.50
2017-08-14T20:41:56.678Z,64.50
2017-08-14T20:44:24.303Z,63.60
2017-08-14T20:46:51.961Z,65.60
2017-08-14T20:49:19.617Z,67.10
2017-08-14T20:51:47.285Z,66.70
2017-08-14T20:54:14.924Z,66.80
2017-08-14T20:56:42.549Z,67.10
2017-08-14T20:59:10.219Z,65.70
2017-08-14T21:01:37.849Z,67.00
2017-08-14T21:04:05.517Z,66.30
2017-08-14T21:06:33.152Z,66.20
2017-08-14T21:09:00.783Z,67.40
2017-08-14T21:11:28.462Z,67.10
2017-08-14T21:13:56.104Z,68.10
2017-08-14T21:16:23.765Z,68.20
2017-08-14T21:18:51.433Z,68.50
2017-08-14T21:21:19.978Z,67.50
2017-08-14T21:23:47.636Z,67.50
2017-08-14T21:26:15.269Z,67.10
2017-08-14T21:28:42.936Z,68.60
2017-08-14T21:31:10.568Z,68.50
2017-08-14T21:33:38.200Z,68.60
2017-08-14T21:36:05.873Z,68.40
2017-08-14T21:38:33.504Z,70.00
2017-08-14T21:41:01.168Z,70.00
2017-08-14T21:43:28.809Z,69.60
2017-08-14T21:45:56.444Z,72.60
2017-08-14T21:48:24.114Z,73.50
2017-08-14T21:50:52.511Z,74.70
2017-08-14T21:53:20.220Z,74.70
2017-08-14T21:55:47.864Z,75.20
2017-08-14T21:58:15.504Z,73.30
2017-08-14T22:00:43.161Z,72.70
2017-08-14T22:03:11.564Z,75.40
2017-08-14T22:05:40.215Z,74.90
2017-08-14T22:08:07.847Z,74.90
2017-08-14T22:10:35.475Z,74.80
2017-08-14T22:13:03.133Z,74.10
2017-08-14T22:15:30.765Z,75.80
2017-08-14T22:17:58.425Z,76.50
2017-08-14T22:20:26.060Z,76.10
2017-08-14T22:22:53.688Z,76.10
2017-08-14T22:25:21.359Z,77.00
2017-08-14T22:27:49.017Z,78.10
2017-08-14T22:30:16.709Z,78.20
2017-08-14T22:32:44.349Z,79.20
2017-08-14T22:35:11.983Z,79.30
2017-08-14T22:37:39.669Z,80.00
2017-08-14T22:40:07.292Z,79.70
2017-08-14T22:42:34.951Z,80.40
2017-08-14T22:45:02.575Z,81.60
2017-08-14T22:47:30.210Z,81.40
2017-08-14T22:49:57.859Z,82.10
2017-08-14T22:52:25.504Z,82.50
2017-08-14T22:54:53.160Z,83.00
2017-08-14T22:57:20.795Z,84.30
2017-08-14T22:59:48.430Z,84.30
2017-08-14T23:02:16.860Z,83.20
2017-08-14T23:04:44.499Z,83.20
2017-08-14T23:07:12.441Z,83.80
2017-08-14T23:09:40.059Z,85.00
2017-08-14T23:12:07.790Z,85.20
2017-08-14T23:14:35.489Z,85.30
2017-08-14T23:17:03.114Z,85.90
2017-08-14T23:19:30.771Z,87.80
2017-08-14T23:21:58.406Z,86.10
2017-08-14T23:24:26.022Z,86.30
2017-08-14T23:26:54.457Z,86.30
2017-08-14T23:29:22.097Z,86.30
2017-08-14T23:31:49.829Z,86.70
2017-08-14T23:34:17.466Z,86.70
2017-08-14T23:36:45.091Z,87.40
2017-08-14T23:39:12.739Z,87.90
2017-08-14T23:41:40.369Z,87.70
2017-08-14T23:44:08.795Z,88.10
2017-08-14T23:46:36.429Z,88.10
2017-08-14T23:49:04.057Z,87.70
2017-08-14T23:51:31.704Z,88.40
2017-08-14T23:53:59.335Z,88.10
2017-08-14T23:56:26.987Z,88.40
2017-08-14T23:58:54.611Z,88.30
